Time;durP1;ratioP1;P1;durP2;ratioP2;P2;SDS_P1;SDS_P2;PMS_P1;PMS_P2;Temp;Humidity;BMP_temperature;BMP_pressure;BME280_temperature;BME280_humidity;BME280_pressure;Samples;Min_cycle;Max_cycle;Signal;HPM_P1;HPM_P2
2021/11/20 00:02:18;;;;;;;10.33;5.60;;;11.50;99.90;;;;;;5069614;28;20782;-72
2021/11/20 00:04:46;;;;;;;8.53;5.27;;;11.50;99.90;;;;;;5069238;28;20221;-72
2021/11/20 00:07:14;;;;;;;8.17;4.87;;;11.50;99.90;;;;;;5073165;28;20202;-72
2021/11/20 00:09:41;;;;;;;11.07;5.30;;;11.50;99.90;;;;;;5071862;28;20203;-72
2021/11/20 00:12:12;;;;;;;7.27;5.00;;;11.50;99.90;;;;;;5068947;28;20205;-72
2021/11/20 00:14:39;;;;;;;7.90;4.67;;;11.50;99.90;;;;;;5070809;28;20284;-72
2021/11/20 00:17:07;;;;;;;8.93;5.00;;;11.40;99.90;;;;;;5074715;28;20198;-72
2021/11/20 00:19:35;;;;;;;9.13;4.73;;;11.40;99.90;;;;;;5071980;28;20664;-72
2021/11/20 00:22:07;;;;;;;10.13;4.87;;;11.40;99.90;;;;;;5071975;28;20579;-72
2021/11/20 00:24:37;;;;;;;7.17;4.00;;;11.40;99.90;;;;;;5070890;28;20206;-72
2021/11/20 00:27:07;;;;;;;11.27;4.63;;;11.50;99.90;;;;;;5071255;28;20205;-72
2021/11/20 00:29:44;;;;;;;11.37;4.63;;;11.40;99.90;;;;;;5071223;28;20665;-72
2021/11/20 00:32:16;;;;;;;10.17;4.83;;;11.40;99.90;;;;;;5069421;28;20206;-72
2021/11/20 00:34:45;;;;;;;7.13;4.60;;;11.40;99.90;;;;;;5071834;28;20198;-72
2021/11/20 00:37:12;;;;;;;6.50;4.60;;;11.50;99.90;;;;;;5071170;28;20576;-72
2021/11/20 00:39:39;;;;;;;8.83;4.30;;;11.40;99.90;;;;;;5069376;28;20209;-72
2021/11/20 00:42:08;;;;;;;9.27;4.77;;;11.40;99.90;;;;;;5070665;28;20218;-72
2021/11/20 00:44:35;;;;;;;9.63;4.50;;;11.50;99.90;;;;;;5071761;28;20312;-72
2021/11/20 00:47:02;;;;;;;9.77;5.03;;;11.40;99.90;;;;;;5071472;28;20202;-72
2021/11/20 00:49:30;;;;;;;10.97;4.67;;;11.50;99.90;;;;;;5072820;28;20201;-72
2021/11/20 00:51:57;;;;;;;12.17;5.50;;;11.50;99.90;;;;;;5071264;28;20199;-72
2021/11/20 00:54:25;;;;;;;10.73;5.20;;;11.50;99.90;;;;;;5073642;28;20202;-72
2021/11/20 00:56:53;;;;;;;11.10;5.67;;;11.50;99.90;;;;;;5071483;28;20228;-72
2021/11/20 00:59:20;;;;;;;11.77;6.20;;;11.50;99.90;;;;;;5086524;28;20205;-72
2021/11/20 01:01:50;;;;;;;8.33;5.67;;;11.40;99.90;;;;;;5079025;28;20215;-72
2021/11/20 01:04:18;;;;;;;8.47;5.60;;;11.50;99.90;;;;;;5071738;28;20211;-72
2021/11/20 01:06:47;;;;;;;9.60;6.10;;;11.40;99.90;;;;;;5073180;28;20584;-72
2021/11/20 01:09:18;;;;;;;11.40;5.73;;;11.40;99.90;;;;;;5071257;28;20203;-72
2021/11/20 01:11:47;;;;;;;10.20;6.60;;;11.40;99.90;;;;;;5072678;28;20205;-73
2021/11/20 01:14:17;;;;;;;11.33;6.43;;;11.40;99.90;;;;;;5071849;28;20216;-72
2021/11/20 01:16:46;;;;;;;10.67;6.77;;;11.40;99.90;;;;;;5071454;28;20258;-72
2021/11/20 01:19:14;;;;;;;12.83;7.70;;;11.40;99.90;;;;;;5072585;28;20204;-72
2021/11/20 01:21:42;;;;;;;9.83;7.20;;;11.40;99.90;;;;;;5071498;28;20222;-72
2021/11/20 01:24:11;;;;;;;10.33;7.37;;;11.40;99.90;;;;;;5071806;28;20659;-72
2021/11/20 01:26:39;;;;;;;10.63;7.40;;;11.40;99.90;;;;;;5070428;28;20210;-72
2021/11/20 01:29:08;;;;;;;10.30;7.50;;;11.40;99.90;;;;;;5071798;28;20298;-72
2021/11/20 01:31:38;;;;;;;12.07;7.20;;;11.40;99.90;;;;;;5071786;28;20728;-72
2021/11/20 01:34:07;;;;;;;12.63;7.73;;;11.40;99.90;;;;;;5070272;28;20599;-72
2021/11/20 01:36:36;;;;;;;10.57;7.50;;;11.40;99.90;;;;;;5072204;28;20658;-72
2021/11/20 01:39:12;;;;;;;11.30;8.03;;;11.40;99.90;;;;;;5072021;28;20198;-72
2021/11/20 01:41:43;;;;;;;12.63;7.33;;;11.40;99.90;;;;;;5071132;28;20221;-72
2021/11/20 01:44:14;;;;;;;9.10;7.50;;;11.40;99.90;;;;;;5071483;28;20567;-72
2021/11/20 01:46:44;;;;;;;12.07;7.70;;;11.40;99.90;;;;;;5070672;28;20649;-72
2021/11/20 01:49:15;;;;;;;11.60;7.50;;;11.40;99.90;;;;;;5071458;28;20198;-69
2021/11/20 01:51:45;;;;;;;11.80;7.97;;;11.40;99.90;;;;;;5071638;28;20205;-69
2021/11/20 01:54:40;;;;;;;14.27;8.00;;;11.40;99.90;;;;;;5071107;28;20234;-69
2021/11/20 01:57:15;;;;;;;15.07;8.60;;;11.30;99.90;;;;;;5069912;28;20213;-70
2021/11/20 01:59:49;;;;;;;14.07;8.30;;;11.40;99.90;;;;;;5071553;28;20207;-69
2021/11/20 02:02:21;;;;;;;14.50;8.40;;;11.30;99.90;;;;;;5069045;28;20572;-69
2021/11/20 02:05:02;;;;;;;12.80;8.03;;;11.40;99.90;;;;;;5070729;28;20206;-69
2021/11/20 02:07:35;;;;;;;15.70;8.23;;;11.40;99.90;;;;;;5068593;28;20206;-69
2021/11/20 02:10:19;;;;;;;13.87;8.60;;;11.40;99.90;;;;;;5071045;28;20292;-69
2021/11/20 02:12:52;;;;;;;18.80;9.33;;;11.40;99.90;;;;;;5071336;28;20566;-69
2021/11/20 02:15:24;;;;;;;11.67;8.10;;;11.40;99.90;;;;;;5070548;28;20244;-70
2021/11/20 02:17:54;;;;;;;11.73;8.83;;;11.40;99.90;;;;;;5070865;28;20676;-69
2021/11/20 02:20:24;;;;;;;12.33;8.70;;;11.40;99.90;;;;;;5071988;28;20194;-70
2021/11/20 02:22:51;;;;;;;14.73;8.37;;;11.40;99.90;;;;;;5076529;28;20205;-70
2021/11/20 02:25:20;;;;;;;14.77;8.60;;;11.40;99.90;;;;;;5072433;28;20230;-70
2021/11/20 02:27:52;;;;;;;13.83;8.23;;;11.40;99.90;;;;;;5070492;28;20203;-69
2021/11/20 02:30:24;;;;;;;12.40;8.23;;;11.40;99.90;;;;;;5071278;28;20199;-70
2021/11/20 02:32:54;;;;;;;11.83;7.97;;;11.40;99.90;;;;;;5071880;28;20652;-70
2021/11/20 02:35:25;;;;;;;13.13;7.93;;;11.40;99.90;;;;;;5070816;28;20213;-69
2021/11/20 02:37:52;;;;;;;14.03;8.00;;;11.40;99.90;;;;;;5071918;28;20256;-69
2021/11/20 02:40:20;;;;;;;11.47;7.63;;;11.40;99.90;;;;;;5071377;28;20209;-69
2021/11/20 02:42:47;;;;;;;13.80;8.20;;;11.40;99.90;;;;;;5071615;28;20214;-70
2021/11/20 02:45:18;;;;;;;12.20;8.10;;;11.40;99.90;;;;;;5071386;28;20198;-70
2021/11/20 02:47:47;;;;;;;13.03;8.23;;;11.40;99.90;;;;;;5075123;28;20198;-70
2021/11/20 02:50:14;;;;;;;15.43;8.60;;;11.40;99.90;;;;;;5070953;28;20206;-70
2021/11/20 02:52:41;;;;;;;14.20;8.23;;;11.40;99.90;;;;;;5075174;28;20198;-70
2021/11/20 02:55:09;;;;;;;15.10;8.00;;;11.40;99.90;;;;;;5075695;28;20205;-69
2021/11/20 02:57:39;;;;;;;16.47;7.83;;;11.40;99.90;;;;;;5073468;28;20554;-70
2021/11/20 03:00:10;;;;;;;14.17;8.37;;;11.40;99.90;;;;;;5074527;28;20653;-70
2021/11/20 03:02:37;;;;;;;14.27;8.47;;;11.40;99.90;;;;;;5073254;28;20229;-69
2021/11/20 03:05:06;;;;;;;14.70;8.13;;;11.40;99.90;;;;;;5074496;28;20295;-70
2021/11/20 03:07:33;;;;;;;12.97;8.30;;;11.40;99.90;;;;;;5074428;28;20209;-69
2021/11/20 03:10:00;;;;;;;14.27;8.17;;;11.40;99.90;;;;;;5073675;28;20289;-69
2021/11/20 03:12:27;;;;;;;12.63;7.87;;;11.40;99.90;;;;;;5074191;28;20563;-70
2021/11/20 03:14:54;;;;;;;15.00;8.13;;;11.40;99.90;;;;;;5073554;28;20202;-69
2021/11/20 03:17:21;;;;;;;14.33;7.23;;;11.40;99.90;;;;;;5074095;28;20210;-70
2021/11/20 03:19:50;;;;;;;13.40;7.53;;;11.40;99.90;;;;;;5073417;28;20570;-70
2021/11/20 03:22:21;;;;;;;12.90;7.73;;;11.40;99.90;;;;;;5074115;28;20591;-70
2021/11/20 03:24:49;;;;;;;11.00;7.70;;;11.30;99.90;;;;;;5074175;28;20703;-69
2021/11/20 03:27:17;;;;;;;11.60;7.30;;;11.40;99.90;;;;;;5074099;28;20212;-70
2021/11/20 03:29:43;;;;;;;12.07;8.17;;;11.30;99.90;;;;;;5074343;28;20210;-69
2021/11/20 03:32:13;;;;;;;18.13;8.23;;;11.40;99.90;;;;;;5073562;28;20213;-70
2021/11/20 03:34:41;;;;;;;16.13;8.97;;;11.30;99.90;;;;;;5072403;28;20297;-69
2021/11/20 03:37:09;;;;;;;15.67;8.03;;;11.30;99.90;;;;;;5073714;28;20198;-69
2021/11/20 03:39:37;;;;;;;14.03;7.90;;;11.30;99.90;;;;;;5073014;28;20206;-69
2021/11/20 03:42:06;;;;;;;9.93;7.47;;;11.40;99.90;;;;;;5073301;28;20659;-69
2021/11/20 03:44:33;;;;;;;14.33;7.90;;;11.40;99.90;;;;;;5073764;28;20198;-70
2021/11/20 03:47:00;;;;;;;10.93;7.30;;;11.40;99.90;;;;;;5073593;28;20206;-69
2021/11/20 03:49:27;;;;;;;14.47;7.80;;;11.30;99.90;;;;;;5073706;28;20198;-70
2021/11/20 03:51:54;;;;;;;12.83;7.33;;;11.40;99.90;;;;;;5069186;28;20199;-69
2021/11/20 03:54:21;;;;;;;13.13;7.17;;;11.40;99.90;;;;;;5069819;28;20210;-69
2021/11/20 03:56:49;;;;;;;13.43;6.80;;;11.40;99.90;;;;;;5072410;28;20202;-70
2021/11/20 03:59:16;;;;;;;9.53;6.50;;;11.40;99.90;;;;;;5073880;28;20210;-70
2021/11/20 04:01:43;;;;;;;11.67;6.70;;;11.40;99.90;;;;;;5071330;28;20222;-70
2021/11/20 04:04:09;;;;;;;11.57;6.00;;;11.40;99.90;;;;;;5080226;28;20205;-70
2021/11/20 04:06:36;;;;;;;13.70;6.17;;;11.40;99.90;;;;;;5072900;28;20557;-70
2021/11/20 04:09:06;;;;;;;11.30;6.03;;;11.40;99.90;;;;;;5073033;28;20569;-69
2021/11/20 04:11:35;;;;;;;9.33;5.80;;;11.40;99.90;;;;;;5072126;28;20207;-70
2021/11/20 04:14:03;;;;;;;9.43;5.73;;;11.40;99.90;;;;;;5073368;28;20592;-70
2021/11/20 04:16:31;;;;;;;8.93;5.73;;;11.40;99.90;;;;;;5072427;28;20568;-70
2021/11/20 04:18:58;;;;;;;10.73;6.00;;;11.40;99.90;;;;;;5067854;28;20198;-70
2021/11/20 04:21:26;;;;;;;11.40;5.87;;;11.40;99.90;;;;;;5072540;28;20222;-70
2021/11/20 04:23:55;;;;;;;9.13;5.33;;;11.40;99.90;;;;;;5071294;28;20276;-70
2021/11/20 04:26:25;;;;;;;9.67;5.37;;;11.40;99.90;;;;;;5073168;28;20206;-69
2021/11/20 04:28:52;;;;;;;8.00;5.77;;;11.40;99.90;;;;;;5070200;28;20206;-70
2021/11/20 04:31:20;;;;;;;13.83;6.27;;;11.40;99.90;;;;;;5072214;28;20197;-70
2021/11/20 04:33:49;;;;;;;10.60;5.13;;;11.40;99.90;;;;;;5072412;28;20211;-70
2021/11/20 04:36:17;;;;;;;9.47;6.07;;;11.30;99.90;;;;;;5072411;28;20232;-70
2021/11/20 04:38:44;;;;;;;9.10;6.13;;;11.40;99.90;;;;;;5068330;28;20206;-70
2021/11/20 04:41:13;;;;;;;9.80;5.97;;;11.40;99.90;;;;;;5071770;28;20566;-69
2021/11/20 04:43:42;;;;;;;10.00;5.70;;;11.40;99.90;;;;;;5072085;28;20206;-70
2021/11/20 04:46:09;;;;;;;10.93;6.57;;;11.40;99.90;;;;;;5071711;28;20200;-70
2021/11/20 04:48:37;;;;;;;13.10;7.00;;;11.40;99.90;;;;;;5072351;28;20202;-70
2021/11/20 04:51:05;;;;;;;10.50;6.70;;;11.40;99.90;;;;;;5071262;28;20209;-70
2021/11/20 04:53:34;;;;;;;9.90;6.80;;;11.40;99.90;;;;;;5071796;28;20281;-70
2021/11/20 04:56:03;;;;;;;12.83;7.67;;;11.40;99.90;;;;;;5074102;28;20285;-70
2021/11/20 04:58:30;;;;;;;11.73;7.20;;;11.40;99.90;;;;;;5072193;28;20198;-70
2021/11/20 05:00:59;;;;;;;13.37;8.77;;;11.40;99.90;;;;;;5071663;28;20664;-70
2021/11/20 05:03:27;;;;;;;13.80;8.93;;;11.40;99.90;;;;;;5071919;28;20222;-70
2021/11/20 05:05:56;;;;;;;17.13;10.10;;;11.40;99.90;;;;;;5072272;28;20221;-70
2021/11/20 05:08:24;;;;;;;17.27;10.07;;;11.40;99.90;;;;;;5072038;28;20191;-70
2021/11/20 05:10:52;;;;;;;15.77;9.57;;;11.40;99.90;;;;;;5070706;28;20194;-70
2021/11/20 05:13:20;;;;;;;16.87;9.47;;;11.40;99.90;;;;;;5074896;28;20199;-70
2021/11/20 05:15:50;;;;;;;16.63;9.83;;;11.30;99.90;;;;;;5070873;28;20218;-73
2021/11/20 05:18:17;;;;;;;15.50;9.30;;;11.30;99.90;;;;;;5072866;28;20237;-70
2021/11/20 05:20:45;;;;;;;17.40;9.87;;;11.30;99.90;;;;;;5071481;28;20217;-70
2021/11/20 05:23:16;;;;;;;15.57;9.13;;;11.30;99.90;;;;;;5071496;28;20309;-70
2021/11/20 05:25:43;;;;;;;15.60;9.47;;;11.20;99.90;;;;;;5067985;28;20293;-70
2021/11/20 05:28:10;;;;;;;18.67;9.73;;;11.30;99.90;;;;;;5070729;28;20206;-70
2021/11/20 05:30:39;;;;;;;17.03;9.73;;;11.20;99.90;;;;;;5071185;28;20214;-70
2021/11/20 05:33:09;;;;;;;17.40;9.93;;;11.20;99.90;;;;;;5068177;28;20228;-70
2021/11/20 05:35:37;;;;;;;16.70;9.83;;;11.20;99.90;;;;;;5071382;28;20657;-70
2021/11/20 05:38:04;;;;;;;15.87;10.77;;;11.20;99.90;;;;;;5073992;28;20206;-69
2021/11/20 05:40:33;;;;;;;16.33;9.97;;;11.20;99.90;;;;;;5070825;28;20586;-70
2021/11/20 05:43:03;;;;;;;20.47;11.27;;;11.20;99.90;;;;;;5071326;28;20214;-70
2021/11/20 05:45:33;;;;;;;16.60;10.20;;;11.20;99.90;;;;;;5069957;28;20206;-70
2021/11/20 05:48:00;;;;;;;27.67;12.20;;;11.20;99.90;;;;;;5071645;28;20567;-70
2021/11/20 05:50:28;;;;;;;19.80;11.03;;;11.20;99.90;;;;;;5071621;28;20211;-70
2021/11/20 05:52:57;;;;;;;17.83;11.50;;;11.20;99.90;;;;;;5071317;28;20202;-69
2021/11/20 05:55:26;;;;;;;19.07;12.03;;;11.20;99.90;;;;;;5070655;28;20206;-69
2021/11/20 05:57:54;;;;;;;22.03;12.00;;;11.20;99.90;;;;;;5071551;28;20201;-70
2021/11/20 06:00:25;;;;;;;21.27;13.50;;;11.20;99.90;;;;;;5066561;28;20582;-70
2021/11/20 06:02:54;;;;;;;20.67;13.53;;;11.20;99.90;;;;;;5071380;28;20226;-70
2021/11/20 06:05:21;;;;;;;23.80;12.83;;;11.20;99.90;;;;;;5071069;28;20396;-70
2021/11/20 06:07:48;;;;;;;23.40;12.93;;;11.20;99.90;;;;;;5069406;28;20218;-70
2021/11/20 06:10:15;;;;;;;21.27;12.60;;;11.20;99.90;;;;;;5067319;28;20217;-70
2021/11/20 06:12:42;;;;;;;23.77;14.00;;;11.10;99.90;;;;;;5071607;28;20540;-70
2021/11/20 06:15:11;;;;;;;22.47;13.17;;;11.20;99.90;;;;;;5071250;28;20605;-70
2021/11/20 06:17:38;;;;;;;22.67;13.80;;;11.10;99.90;;;;;;5070205;28;20202;-70
2021/11/20 06:20:07;;;;;;;22.50;13.87;;;11.10;99.90;;;;;;5070212;28;20209;-70
2021/11/20 06:22:34;;;;;;;20.63;12.93;;;11.10;99.90;;;;;;5074566;28;20233;-70
2021/11/20 06:25:01;;;;;;;24.00;14.70;;;11.10;99.90;;;;;;5075582;28;20194;-70
2021/11/20 06:27:28;;;;;;;22.63;13.73;;;11.10;99.90;;;;;;5075019;28;20202;-70
2021/11/20 06:29:55;;;;;;;24.80;15.03;;;11.10;99.90;;;;;;5072726;28;20213;-69
2021/11/20 06:32:23;;;;;;;24.17;15.23;;;11.10;99.90;;;;;;5074219;28;20665;-70
2021/11/20 06:34:50;;;;;;;22.20;14.60;;;11.10;99.90;;;;;;5075082;28;20202;-70
2021/11/20 06:37:17;;;;;;;26.67;16.13;;;11.10;99.90;;;;;;5074775;28;20202;-69
2021/11/20 06:39:43;;;;;;;25.00;16.30;;;11.10;99.90;;;;;;5074820;28;20653;-69
2021/11/20 06:42:10;;;;;;;26.83;14.97;;;11.10;99.90;;;;;;5072738;28;20218;-70
2021/11/20 06:44:37;;;;;;;25.80;16.93;;;11.10;99.90;;;;;;5074734;28;20210;-69
2021/11/20 06:47:05;;;;;;;24.67;15.47;;;11.10;99.90;;;;;;5074844;28;20727;-69
2021/11/20 06:49:33;;;;;;;27.50;16.43;;;11.10;99.90;;;;;;5073845;28;20206;-70
2021/11/20 06:52:00;;;;;;;25.43;16.90;;;11.10;99.90;;;;;;5074201;28;20208;-70
2021/11/20 06:54:27;;;;;;;24.00;15.67;;;11.10;99.90;;;;;;5074519;28;20199;-70
2021/11/20 06:57:04;;;;;;;25.83;17.13;;;11.10;99.90;;;;;;5074720;28;20568;-69
2021/11/20 07:02:24;;;;;;;25.33;16.80;;;11.10;99.90;;;;;;5073401;28;20593;-69
2021/11/20 07:04:54;;;;;;;28.07;16.87;;;11.20;99.90;;;;;;5071246;28;20209;-70
2021/11/20 07:07:20;;;;;;;25.13;15.97;;;11.20;99.90;;;;;;5074866;28;20209;-70
2021/11/20 07:09:49;;;;;;;25.53;16.40;;;11.20;99.90;;;;;;5073874;28;20719;-70
2021/11/20 07:12:16;;;;;;;23.40;14.73;;;11.10;99.90;;;;;;5073517;28;20207;-70
2021/11/20 07:14:43;;;;;;;24.73;15.20;;;11.20;99.90;;;;;;5074978;28;20206;-70
2021/11/20 07:17:11;;;;;;;24.87;16.63;;;11.20;99.90;;;;;;5073279;28;20553;-70
2021/11/20 07:19:38;;;;;;;25.87;16.27;;;11.20;99.90;;;;;;5074970;28;20197;-70
2021/11/20 07:22:06;;;;;;;25.40;15.93;;;11.20;99.90;;;;;;5073300;28;20206;-70
2021/11/20 07:24:33;;;;;;;25.77;16.70;;;11.20;99.90;;;;;;5074585;28;20543;-70
2021/11/20 07:27:00;;;;;;;25.43;15.97;;;11.20;99.90;;;;;;5074765;28;20202;-70
2021/11/20 07:29:27;;;;;;;28.50;16.60;;;11.10;99.90;;;;;;5083428;28;20233;-70
2021/11/20 07:31:54;;;;;;;24.17;16.37;;;11.20;99.90;;;;;;5073844;28;20217;-70
2021/11/20 07:34:20;;;;;;;24.87;17.40;;;11.20;99.90;;;;;;5074450;28;20205;-70
2021/11/20 07:36:47;;;;;;;25.40;17.13;;;11.20;99.90;;;;;;5074781;28;20206;-69
2021/11/20 07:39:16;;;;;;;27.37;17.47;;;11.20;99.90;;;;;;5074177;28;20198;-70
2021/11/20 07:41:44;;;;;;;24.70;16.23;;;11.20;99.90;;;;;;5074650;28;20206;-70
2021/11/20 07:44:11;;;;;;;24.47;16.20;;;11.20;99.90;;;;;;5082412;28;20218;-70
2021/11/20 07:46:38;;;;;;;27.13;17.43;;;11.20;99.90;;;;;;5073840;28;20202;-70
2021/11/20 07:49:06;;;;;;;27.30;18.73;;;11.20;99.90;;;;;;5073845;28;20559;-70
2021/11/20 07:51:33;;;;;;;26.13;16.30;;;11.30;99.90;;;;;;5072937;28;20281;-70
2021/11/20 07:54:00;;;;;;;24.53;16.83;;;11.20;99.90;;;;;;5073628;28;20187;-70
2021/11/20 07:56:29;;;;;;;29.90;17.67;;;11.30;99.90;;;;;;5073094;28;20564;-70
2021/11/20 07:58:57;;;;;;;24.07;16.23;;;11.30;99.90;;;;;;5074429;28;20198;-70
2021/11/20 08:01:25;;;;;;;24.77;17.30;;;11.20;99.90;;;;;;5072377;28;20684;-70
2021/11/20 08:03:52;;;;;;;27.90;18.20;;;11.30;99.90;;;;;;5073888;28;20585;-70
2021/11/20 08:06:20;;;;;;;24.50;17.13;;;11.20;99.90;;;;;;5073857;28;20201;-70
2021/11/20 08:08:47;;;;;;;27.37;18.60;;;11.20;99.90;;;;;;5074094;28;20197;-70
2021/11/20 08:11:14;;;;;;;25.20;17.13;;;11.20;99.90;;;;;;5072844;28;20202;-70
2021/11/20 08:13:43;;;;;;;26.93;18.53;;;11.30;99.90;;;;;;5074064;28;20640;-70
2021/11/20 08:16:10;;;;;;;25.87;17.67;;;11.30;99.90;;;;;;5072888;28;20206;-70
2021/11/20 08:18:37;;;;;;;26.27;17.90;;;11.30;99.90;;;;;;5089257;28;20198;-70
2021/11/20 08:21:05;;;;;;;25.60;17.90;;;11.30;99.90;;;;;;5076878;28;20206;-70
2021/11/20 08:23:32;;;;;;;27.30;17.77;;;11.40;99.90;;;;;;5082341;28;20222;-70
2021/11/20 08:25:59;;;;;;;24.20;17.20;;;11.40;99.90;;;;;;5071103;28;20202;-70
2021/11/20 08:28:26;;;;;;;25.77;17.13;;;11.40;99.90;;;;;;5069096;28;20297;-70
2021/11/20 08:30:55;;;;;;;24.97;17.70;;;11.50;99.90;;;;;;5072715;28;20217;-70
2021/11/20 08:33:22;;;;;;;25.77;17.90;;;11.50;99.90;;;;;;5072727;28;20252;-70
2021/11/20 08:35:49;;;;;;;25.50;18.37;;;11.50;99.90;;;;;;5072649;28;20320;-69
2021/11/20 08:38:17;;;;;;;25.87;17.70;;;11.50;99.90;;;;;;5071143;28;20209;-69
2021/11/20 08:40:47;;;;;;;24.13;17.60;;;11.60;99.90;;;;;;5073797;28;20210;-69
2021/11/20 08:43:15;;;;;;;24.23;17.77;;;11.50;99.90;;;;;;5068481;28;20226;-69
2021/11/20 08:45:47;;;;;;;26.30;18.00;;;11.60;99.90;;;;;;5067604;28;20207;-74
2021/11/20 08:48:18;;;;;;;27.27;18.13;;;11.60;99.90;;;;;;5065749;28;20205;-73
2021/11/20 08:50:48;;;;;;;25.53;18.33;;;11.60;99.90;;;;;;5080426;28;20215;-72
2021/11/20 08:53:15;;;;;;;25.93;17.27;;;11.60;99.90;;;;;;5066643;28;20203;-76
2021/11/20 08:55:42;;;;;;;24.87;17.27;;;11.60;99.90;;;;;;5067654;28;20297;-73
2021/11/20 08:58:10;;;;;;;25.87;18.20;;;11.70;99.90;;;;;;5065458;28;20209;-72
2021/11/20 09:00:41;;;;;;;27.67;18.03;;;11.70;99.90;;;;;;5065895;28;20213;-72
2021/11/20 09:03:11;;;;;;;26.07;18.00;;;11.80;99.90;;;;;;5067403;28;20229;-72
2021/11/20 09:05:45;;;;;;;23.17;16.17;;;11.80;99.90;;;;;;5067123;28;20680;-72
2021/11/20 09:08:16;;;;;;;26.77;17.23;;;11.90;99.90;;;;;;5071517;28;20203;-72
2021/11/20 09:10:46;;;;;;;32.27;18.80;;;11.90;99.90;;;;;;5067356;28;20479;-72
2021/11/20 09:13:18;;;;;;;23.03;16.80;;;11.90;99.90;;;;;;5063213;28;20206;-72
2021/11/20 09:15:49;;;;;;;26.97;16.67;;;11.90;99.90;;;;;;5062361;28;20587;-72
2021/11/20 09:18:17;;;;;;;24.17;17.87;;;11.90;99.90;;;;;;5068066;28;20498;-72
2021/11/20 09:20:47;;;;;;;24.57;17.03;;;11.90;99.90;;;;;;5068100;28;20201;-72
2021/11/20 09:23:15;;;;;;;26.57;17.97;;;12.00;99.90;;;;;;5067242;28;20681;-72
2021/11/20 09:25:42;;;;;;;26.07;18.07;;;12.00;99.90;;;;;;5068492;28;20216;-72
2021/11/20 09:28:11;;;;;;;25.73;17.03;;;11.90;99.90;;;;;;5067685;28;20198;-72
2021/11/20 09:30:41;;;;;;;23.73;17.53;;;11.90;99.90;;;;;;5067463;28;20206;-73
2021/11/20 09:33:08;;;;;;;25.97;18.07;;;12.00;99.90;;;;;;5066618;28;20210;-72
2021/11/20 09:35:36;;;;;;;24.47;17.57;;;12.00;99.90;;;;;;5068623;28;20214;-72
2021/11/20 09:38:05;;;;;;;25.20;16.70;;;12.00;99.90;;;;;;5067196;28;20645;-72
2021/11/20 09:40:36;;;;;;;24.23;17.50;;;12.00;99.90;;;;;;5066639;28;20657;-72
2021/11/20 09:43:05;;;;;;;24.50;17.00;;;12.10;99.90;;;;;;5065879;28;20210;-72
2021/11/20 09:45:35;;;;;;;26.40;16.80;;;12.10;99.90;;;;;;5066651;28;20210;-73
2021/11/20 09:48:08;;;;;;;22.63;15.77;;;12.10;99.90;;;;;;5066805;28;20208;-72
2021/11/20 09:50:38;;;;;;;24.33;16.33;;;12.20;99.90;;;;;;5062047;28;20226;-72
2021/11/20 09:53:07;;;;;;;23.87;15.40;;;12.20;99.90;;;;;;5068394;28;20209;-72
2021/11/20 09:55:39;;;;;;;24.17;16.57;;;12.20;99.90;;;;;;5067044;28;20362;-72
2021/11/20 09:58:13;;;;;;;22.67;15.53;;;12.20;99.90;;;;;;5065535;28;20236;-72
2021/11/20 10:01:04;;;;;;;24.50;16.77;;;12.20;99.90;;;;;;5066659;28;20213;-72
2021/11/20 10:03:41;;;;;;;22.43;16.37;;;12.20;99.90;;;;;;5059796;28;20223;-73
2021/11/20 10:06:11;;;;;;;23.47;17.20;;;12.20;99.90;;;;;;5067945;28;20202;-72
2021/11/20 10:08:41;;;;;;;24.03;15.73;;;12.30;99.90;;;;;;5065126;28;20203;-72
2021/11/20 10:11:30;;;;;;;22.30;16.30;;;12.30;99.90;;;;;;5066543;28;20213;-72
2021/11/20 10:14:02;;;;;;;20.80;15.57;;;12.30;99.90;;;;;;5073562;28;20194;-72
2021/11/20 10:16:39;;;;;;;20.83;14.63;;;12.40;99.90;;;;;;5062060;28;20210;-72
2021/11/20 10:19:10;;;;;;;22.23;15.47;;;12.30;99.90;;;;;;5064183;28;20209;-72
2021/11/20 10:21:39;;;;;;;22.27;15.90;;;12.30;99.90;;;;;;5066352;28;20200;-72
2021/11/20 10:24:16;;;;;;;22.07;15.30;;;12.30;99.90;;;;;;5067694;28;20217;-72
2021/11/20 10:27:12;;;;;;;22.90;15.57;;;12.40;99.90;;;;;;5064437;28;20209;-72
2021/11/20 10:30:04;;;;;;;22.80;15.80;;;12.40;99.90;;;;;;5039976;28;20637;-72
2021/11/20 10:32:37;;;;;;;23.00;15.80;;;12.40;99.90;;;;;;5066795;28;20576;-72
2021/11/20 10:35:23;;;;;;;22.47;15.13;;;12.40;99.90;;;;;;5066168;28;20210;-72
2021/11/20 10:37:52;;;;;;;21.73;14.97;;;12.40;99.90;;;;;;5067214;28;20649;-72
2021/11/20 10:40:27;;;;;;;22.43;14.87;;;12.40;99.90;;;;;;5068237;28;20207;-72
2021/11/20 10:42:58;;;;;;;23.23;14.87;;;12.30;99.90;;;;;;5067514;28;20209;-72
2021/11/20 10:45:38;;;;;;;22.10;14.03;;;12.30;99.90;;;;;;5065141;28;20206;-72
2021/11/20 10:48:11;;;;;;;22.00;14.17;;;12.40;99.90;;;;;;5066078;28;20205;-72
2021/11/20 10:50:42;;;;;;;21.40;13.30;;;12.30;99.90;;;;;;5065970;28;20198;-72
2021/11/20 10:53:42;;;;;;;20.27;13.00;;;12.40;99.90;;;;;;5066379;28;20202;-72
2021/11/20 10:56:34;;;;;;;20.17;12.63;;;12.40;99.90;;;;;;5066789;28;20208;-72
2021/11/20 10:59:34;;;;;;;21.40;13.77;;;12.30;99.90;;;;;;5066065;28;20206;-72
2021/11/20 11:02:36;;;;;;;20.57;13.57;;;12.30;99.90;;;;;;5063761;28;20245;-72
2021/11/20 11:05:27;;;;;;;19.53;13.20;;;12.30;99.90;;;;;;5060559;28;20213;-72
2021/11/20 11:08:02;;;;;;;18.83;11.47;;;12.30;99.90;;;;;;5064523;28;20379;-72
2021/11/20 11:10:35;;;;;;;17.77;11.37;;;12.30;99.90;;;;;;5067703;28;20676;-73
2021/11/20 11:13:09;;;;;;;18.80;12.03;;;12.30;99.90;;;;;;5071206;28;20205;-72
2021/11/20 11:15:55;;;;;;;19.73;12.53;;;12.20;99.90;;;;;;5069678;28;20206;-72
2021/11/20 11:18:32;;;;;;;17.37;11.57;;;12.30;99.90;;;;;;5068007;28;20202;-72
2021/11/20 11:21:44;;;;;;;17.17;10.87;;;12.30;99.90;;;;;;5070073;28;20205;-73
2021/11/20 11:24:32;;;;;;;19.00;11.13;;;12.20;99.90;;;;;;5030301;28;20241;-72
2021/11/20 11:27:08;;;;;;;18.20;10.53;;;12.20;99.90;;;;;;5067200;28;20222;-72
2021/11/20 11:29:50;;;;;;;17.23;10.80;;;12.20;99.90;;;;;;5066630;28;20216;-73
2021/11/20 11:32:18;;;;;;;18.10;10.33;;;12.20;99.90;;;;;;5068339;28;20218;-72
2021/11/20 11:34:51;;;;;;;18.33;11.90;;;12.10;99.90;;;;;;5068058;28;20453;-72
2021/11/20 11:37:26;;;;;;;18.13;11.37;;;12.10;99.90;;;;;;5070832;28;20198;-73
2021/11/20 11:39:57;;;;;;;19.80;11.37;;;12.10;99.90;;;;;;5068833;28;20209;-72
2021/11/20 11:42:44;;;;;;;19.80;11.87;;;12.00;99.90;;;;;;5067409;28;20214;-73
2021/11/20 11:45:47;;;;;;;20.73;12.67;;;12.00;99.90;;;;;;5068754;28;20276;-72
2021/11/20 11:48:18;;;;;;;19.03;11.43;;;12.00;99.90;;;;;;5069478;28;20214;-72
2021/11/20 11:51:02;;;;;;;19.67;12.33;;;12.00;99.90;;;;;;5067188;28;20206;-72
2021/11/20 11:53:55;;;;;;;19.83;12.20;;;12.00;99.90;;;;;;5064397;28;20209;-72
2021/11/20 11:56:28;;;;;;;17.73;11.57;;;11.90;99.90;;;;;;5067589;28;20574;-72
2021/11/20 11:59:09;;;;;;;19.27;12.40;;;12.00;99.90;;;;;;5070322;28;20574;-72
2021/11/20 12:02:01;;;;;;;18.70;11.27;;;11.90;99.90;;;;;;5066382;28;20210;-72
2021/11/20 12:04:35;;;;;;;18.50;11.07;;;11.90;99.90;;;;;;5067873;28;20581;-72
2021/11/20 12:07:41;;;;;;;19.23;11.60;;;12.00;99.90;;;;;;5066255;28;20289;-73
2021/11/20 12:10:17;;;;;;;18.00;10.63;;;12.00;99.90;;;;;;5072340;28;20221;-72
2021/11/20 12:12:56;;;;;;;19.30;10.87;;;12.00;99.90;;;;;;5067241;28;20590;-73
2021/11/20 12:15:32;;;;;;;18.93;10.97;;;11.90;99.90;;;;;;5068539;28;20206;-72
2021/11/20 12:18:10;;;;;;;19.00;11.07;;;12.00;99.90;;;;;;5069792;28;20739;-72
2021/11/20 12:20:42;;;;;;;21.33;12.20;;;12.00;99.90;;;;;;5068318;28;20217;-72
2021/11/20 12:23:24;;;;;;;22.50;13.57;;;12.10;99.90;;;;;;5067684;28;20218;-72
2021/11/20 12:26:10;;;;;;;25.10;15.13;;;12.00;99.90;;;;;;5067595;28;20229;-72
2021/11/20 12:28:43;;;;;;;30.47;17.33;;;12.00;99.90;;;;;;5068391;28;20502;-72
2021/11/20 12:31:31;;;;;;;29.50;17.80;;;11.90;99.90;;;;;;5067210;28;20206;-72
2021/11/20 12:34:11;;;;;;;32.40;20.00;;;11.90;99.90;;;;;;5068598;28;20210;-72
2021/11/20 12:37:27;;;;;;;31.00;19.00;;;11.80;99.90;;;;;;5068969;28;20292;-72
2021/11/20 12:40:13;;;;;;;32.73;20.67;;;11.90;99.90;;;;;;5068013;28;20660;-73
2021/11/20 12:43:03;;;;;;;39.60;22.50;;;11.80;99.90;;;;;;5065346;28;20734;-69
2021/11/20 12:45:55;;;;;;;36.13;22.13;;;11.70;99.90;;;;;;5065709;28;20589;-72
2021/11/20 12:48:50;;;;;;;37.73;23.07;;;11.70;99.90;;;;;;5064414;28;20702;-73
2021/11/20 12:51:32;;;;;;;37.83;22.87;;;11.70;99.90;;;;;;5056146;28;20206;-74
2021/11/20 12:54:08;;;;;;;37.13;21.80;;;11.60;99.90;;;;;;5065337;28;20198;-73
2021/11/20 12:56:38;;;;;;;33.33;21.10;;;11.60;99.90;;;;;;5067092;28;20619;-73
2021/11/20 12:59:17;;;;;;;33.93;20.60;;;11.60;99.90;;;;;;5064652;28;20209;-73